sensor_id;sensor_type;location;lat;lon;timestamp;pressure;altitude;pressure_sealevel;temperature;humidity
4085;BME280;2057;50.858;6.572;2023-08-21T00:01:23;100945.94;;;21.86;99.97
4085;BME280;2057;50.858;6.572;2023-08-21T00:03:52;100944.22;;;21.87;99.36
4085;BME280;2057;50.858;6.572;2023-08-21T00:06:17;100937.31;;;21.86;99.55
4085;BME280;2057;50.858;6.572;2023-08-21T00:08:43;100947.66;;;21.86;100.00
4085;BME280;2057;50.858;6.572;2023-08-21T00:11:11;100947.59;;;21.78;100.00
4085;BME280;2057;50.858;6.572;2023-08-21T00:13:36;100943.25;;;21.77;99.71
4085;BME280;2057;50.858;6.572;2023-08-21T00:16:01;100939.78;;;21.72;100.00
4085;BME280;2057;50.858;6.572;2023-08-21T00:18:27;100939.78;;;21.73;100.00
4085;BME280;2057;50.858;6.572;2023-08-21T00:20:53;100940.59;;;21.68;100.00
4085;BME280;2057;50.858;6.572;2023-08-21T00:23:18;100946.34;;;21.45;100.00
4085;BME280;2057;50.858;6.572;2023-08-21T00:25:52;100934.50;;;21.62;100.00
4085;BME280;2057;50.858;6.572;2023-08-21T00:28:18;100941.38;;;21.63;99.52
4085;BME280;2057;50.858;6.572;2023-08-21T00:30:43;100944.72;;;21.56;100.00
4085;BME280;2057;50.858;6.572;2023-08-21T00:33:08;100944.84;;;21.66;100.00
4085;BME280;2057;50.858;6.572;2023-08-21T00:35:36;100938.78;;;21.60;99.08
4085;BME280;2057;50.858;6.572;2023-08-21T00:38:01;100938.81;;;21.63;100.00
4085;BME280;2057;50.858;6.572;2023-08-21T00:40:27;100931.88;;;21.59;99.87
4085;BME280;2057;50.858;6.572;2023-08-21T00:42:53;100920.56;;;21.53;100.00
4085;BME280;2057;50.858;6.572;2023-08-21T00:45:18;100931.88;;;21.58;100.00
4085;BME280;2057;50.858;6.572;2023-08-21T00:47:43;100928.38;;;21.57;100.00
4085;BME280;2057;50.858;6.572;2023-08-21T00:50:11;100927.47;;;21.52;100.00
4085;BME280;2057;50.858;6.572;2023-08-21T00:52:39;100932.59;;;21.49;100.00
4085;BME280;2057;50.858;6.572;2023-08-21T00:55:06;100939.44;;;21.47;100.00
4085;BME280;2057;50.858;6.572;2023-08-21T00:57:33;100927.44;;;21.49;100.00
4085;BME280;2057;50.858;6.572;2023-08-21T01:00:00;100930.06;;;21.54;100.00
4085;BME280;2057;50.858;6.572;2023-08-21T01:02:26;100924.00;;;21.49;100.00
4085;BME280;2057;50.858;6.572;2023-08-21T01:04:51;100924.00;;;21.50;100.00
4085;BME280;2057;50.858;6.572;2023-08-21T01:07:16;100923.09;;;21.46;100.00
4085;BME280;2057;50.858;6.572;2023-08-21T01:09:50;100924.78;;;21.43;100.00
4085;BME280;2057;50.858;6.572;2023-08-21T01:12:25;100934.19;;;21.38;100.00
4085;BME280;2057;50.858;6.572;2023-08-21T01:15:00;100928.22;;;21.42;100.00
4085;BME280;2057;50.858;6.572;2023-08-21T01:17:28;100929.00;;;21.35;100.00
4085;BME280;2057;50.858;6.572;2023-08-21T01:19:55;100931.19;;;21.02;100.00
4085;BME280;2057;50.858;6.572;2023-08-21T01:22:27;100930.22;;;20.95;100.00
4085;BME280;2057;50.858;6.572;2023-08-21T01:24:54;100936.91;;;20.81;100.00
4085;BME280;2057;50.858;6.572;2023-08-21T01:27:19;100942.66;;;20.63;100.00
4085;BME280;2057;50.858;6.572;2023-08-21T01:29:48;100940.41;;;20.84;100.00
4085;BME280;2057;50.858;6.572;2023-08-21T01:32:22;100936.97;;;20.84;100.00
4085;BME280;2057;50.858;6.572;2023-08-21T01:34:51;100939.50;;;20.82;100.00
4085;BME280;2057;50.858;6.572;2023-08-21T01:37:17;100938.72;;;20.85;100.00
4085;BME280;2057;50.858;6.572;2023-08-21T01:39:43;100933.63;;;20.94;100.00
4085;BME280;2057;50.858;6.572;2023-08-21T01:42:08;100942.13;;;20.84;100.00
4085;BME280;2057;50.858;6.572;2023-08-21T01:44:33;100942.19;;;20.89;100.00
4085;BME280;2057;50.858;6.572;2023-08-21T01:46:59;100941.31;;;20.87;100.00
4085;BME280;2057;50.858;6.572;2023-08-21T01:49:24;100942.13;;;20.84;100.00
4085;BME280;2057;50.858;6.572;2023-08-21T01:51:52;100937.00;;;20.87;100.00
4085;BME280;2057;50.858;6.572;2023-08-21T01:54:17;100932.72;;;20.89;100.00
4085;BME280;2057;50.858;6.572;2023-08-21T01:56:42;100938.78;;;20.91;100.00
4085;BME280;2057;50.858;6.572;2023-08-21T01:59:08;100932.00;;;20.99;100.00
4085;BME280;2057;50.858;6.572;2023-08-21T02:01:33;100930.28;;;21.00;100.00
4085;BME280;2057;50.858;6.572;2023-08-21T02:03:59;100931.94;;;20.95;100.00
4085;BME280;2057;50.858;6.572;2023-08-21T02:06:24;100930.22;;;20.94;100.00
4085;BME280;2057;50.858;6.572;2023-08-21T02:08:49;100932.81;;;20.95;100.00
4085;BME280;2057;50.858;6.572;2023-08-21T02:11:15;100932.00;;;20.98;100.00
4085;BME280;2057;50.858;6.572;2023-08-21T02:13:50;100932.88;;;21.00;100.00
4085;BME280;2057;50.858;6.572;2023-08-21T02:16:15;100937.94;;;20.92;100.00
4085;BME280;2057;50.858;6.572;2023-08-21T02:18:41;100943.13;;;20.94;100.00
4085;BME280;2057;50.858;6.572;2023-08-21T02:21:06;100934.53;;;20.95;100.00
4085;BME280;2057;50.858;6.572;2023-08-21T02:23:31;100940.53;;;20.92;100.00
4085;BME280;2057;50.858;6.572;2023-08-21T02:25:57;100948.69;;;20.65;100.00
4085;BME280;2057;50.858;6.572;2023-08-21T02:28:22;100953.66;;;19.99;100.00
4085;BME280;2057;50.858;6.572;2023-08-21T02:30:47;100946.19;;;20.14;100.00
4085;BME280;2057;50.858;6.572;2023-08-21T02:33:13;100934.66;;;20.47;100.00
4085;BME280;2057;50.858;6.572;2023-08-21T02:35:38;100937.59;;;20.69;100.00
4085;BME280;2057;50.858;6.572;2023-08-21T02:38:11;100942.16;;;20.87;100.00
4085;BME280;2057;50.858;6.572;2023-08-21T02:40:37;100938.66;;;20.82;100.00
4085;BME280;2057;50.858;6.572;2023-08-21T02:43:02;100937.69;;;20.74;100.00
4085;BME280;2057;50.858;6.572;2023-08-21T02:45:27;100937.63;;;20.72;100.00
4085;BME280;2057;50.858;6.572;2023-08-21T02:47:53;100942.00;;;20.76;100.00
4085;BME280;2057;50.858;6.572;2023-08-21T02:50:21;100936.91;;;20.81;100.00
4085;BME280;2057;50.858;6.572;2023-08-21T02:52:46;100938.59;;;20.77;100.00
4085;BME280;2057;50.858;6.572;2023-08-21T02:55:12;100938.34;;;20.63;100.00
4085;BME280;2057;50.858;6.572;2023-08-21T02:57:37;100944.47;;;20.70;100.00
4085;BME280;2057;50.858;6.572;2023-08-21T03:00:03;100929.81;;;20.67;100.00
4085;BME280;2057;50.858;6.572;2023-08-21T03:02:29;100936.03;;;20.79;100.00
4085;BME280;2057;50.858;6.572;2023-08-21T03:04:54;100937.81;;;20.83;100.00
4085;BME280;2057;50.858;6.572;2023-08-21T03:07:22;100938.53;;;20.74;100.00
4085;BME280;2057;50.858;6.572;2023-08-21T03:09:48;100929.00;;;20.72;100.00
4085;BME280;2057;50.858;6.572;2023-08-21T03:12:14;100933.41;;;20.76;100.00
4085;BME280;2057;50.858;6.572;2023-08-21T03:14:41;100928.28;;;20.79;100.00
4085;BME280;2057;50.858;6.572;2023-08-21T03:17:09;100936.53;;;20.55;100.00
4085;BME280;2057;50.858;6.572;2023-08-21T03:19:34;100942.44;;;20.49;100.00
4085;BME280;2057;50.858;6.572;2023-08-21T03:22:03;100942.84;;;20.20;100.00
4085;BME280;2057;50.858;6.572;2023-08-21T03:24:30;100942.78;;;20.17;100.00
4085;BME280;2057;50.858;6.572;2023-08-21T03:26:56;100939.41;;;20.21;100.00
4085;BME280;2057;50.858;6.572;2023-08-21T03:29:21;100943.59;;;20.14;100.00
4085;BME280;2057;50.858;6.572;2023-08-21T03:31:49;100936.53;;;20.02;100.00
4085;BME280;2057;50.858;6.572;2023-08-21T03:34:14;100934.09;;;20.12;100.00
4085;BME280;2057;50.858;6.572;2023-08-21T03:36:40;100934.13;;;20.13;100.00
4085;BME280;2057;50.858;6.572;2023-08-21T03:39:05;100931.38;;;20.02;100.00
4085;BME280;2057;50.858;6.572;2023-08-21T03:41:31;100923.69;;;20.05;100.00
4085;BME280;2057;50.858;6.572;2023-08-21T03:43:56;100925.16;;;19.91;100.00
4085;BME280;2057;50.858;6.572;2023-08-21T03:46:21;100926.59;;;19.77;100.00
4085;BME280;2057;50.858;6.572;2023-08-21T03:48:46;100922.25;;;19.72;100.00
4085;BME280;2057;50.858;6.572;2023-08-21T03:51:12;100921.50;;;19.80;100.00
4085;BME280;2057;50.858;6.572;2023-08-21T03:53:40;100917.69;;;19.60;100.00
4085;BME280;2057;50.858;6.572;2023-08-21T03:56:05;100919.84;;;19.37;100.00
4085;BME280;2057;50.858;6.572;2023-08-21T03:58:31;100918.06;;;19.35;100.00
4085;BME280;2057;50.858;6.572;2023-08-21T04:00:57;100920.63;;;19.33;100.00
4085;BME280;2057;50.858;6.572;2023-08-21T04:03:22;100915.53;;;19.36;100.00
4085;BME280;2057;50.858;6.572;2023-08-21T04:05:50;100917.22;;;19.34;100.00
4085;BME280;2057;50.858;6.572;2023-08-21T04:08:20;100924.09;;;19.35;100.00
4085;BME280;2057;50.858;6.572;2023-08-21T04:10:46;100918.94;;;19.35;100.00
4085;BME280;2057;50.858;6.572;2023-08-21T04:13:11;100922.44;;;19.37;100.00
4085;BME280;2057;50.858;6.572;2023-08-21T04:15:37;100929.34;;;19.40;100.00
4085;BME280;2057;50.858;6.572;2023-08-21T04:18:05;100939.97;;;19.14;100.00
4085;BME280;2057;50.858;6.572;2023-08-21T04:20:30;100938.63;;;18.92;100.00
4085;BME280;2057;50.858;6.572;2023-08-21T04:22:55;100934.63;;;19.05;100.00
4085;BME280;2057;50.858;6.572;2023-08-21T04:25:21;100937.50;;;19.19;100.00
4085;BME280;2057;50.858;6.572;2023-08-21T04:27:46;100941.03;;;19.24;100.00
4085;BME280;2057;50.858;6.572;2023-08-21T04:30:12;100935.25;;;19.36;100.00
4085;BME280;2057;50.858;6.572;2023-08-21T04:32:37;100942.34;;;19.46;100.00
4085;BME280;2057;50.858;6.572;2023-08-21T04:35:03;100947.88;;;18.84;100.00
4085;BME280;2057;50.858;6.572;2023-08-21T04:37:33;100950.44;;;18.84;100.00
4085;BME280;2057;50.858;6.572;2023-08-21T04:39:58;100948.81;;;18.87;100.00
4085;BME280;2057;50.858;6.572;2023-08-21T04:42:23;100950.22;;;19.12;100.00
4085;BME280;2057;50.858;6.572;2023-08-21T04:44:49;100952.03;;;18.78;100.00
4085;BME280;2057;50.858;6.572;2023-08-21T04:49:48;100957.09;;;19.13;100.00
4085;BME280;2057;50.858;6.572;2023-08-21T04:52:13;100955.63;;;19.23;100.00
4085;BME280;2057;50.858;6.572;2023-08-21T04:54:40;100960.97;;;18.93;100.00
4085;BME280;2057;50.858;6.572;2023-08-21T04:57:06;100959.13;;;18.89;100.00
4085;BME280;2057;50.858;6.572;2023-08-21T04:59:31;100962.84;;;19.00;100.00
4085;BME280;2057;50.858;6.572;2023-08-21T05:01:56;100971.09;;;19.25;100.00
4085;BME280;2057;50.858;6.572;2023-08-21T05:04:22;100972.22;;;19.39;100.00
4085;BME280;2057;50.858;6.572;2023-08-21T05:06:47;100975.66;;;19.38;100.00
4085;BME280;2057;50.858;6.572;2023-08-21T05:09:13;100965.84;;;19.20;100.00
4085;BME280;2057;50.858;6.572;2023-08-21T05:11:38;100972.00;;;19.27;100.00
4085;BME280;2057;50.858;6.572;2023-08-21T05:14:06;100969.16;;;19.15;100.00
4085;BME280;2057;50.858;6.572;2023-08-21T05:16:33;100962.88;;;19.03;100.00
4085;BME280;2057;50.858;6.572;2023-08-21T05:19:01;100969.34;;;19.24;100.00
4085;BME280;2057;50.858;6.572;2023-08-21T05:21:27;100968.44;;;19.22;100.00
4085;BME280;2057;50.858;6.572;2023-08-21T05:23:52;100968.53;;;19.26;100.00
4085;BME280;2057;50.858;6.572;2023-08-21T05:26:21;100975.41;;;19.26;100.00
4085;BME280;2057;50.858;6.572;2023-08-21T05:28:49;100971.25;;;19.33;100.00
4085;BME280;2057;50.858;6.572;2023-08-21T05:31:14;100977.25;;;19.33;100.00
4085;BME280;2057;50.858;6.572;2023-08-21T05:33:39;100979.25;;;19.47;100.00
4085;BME280;2057;50.858;6.572;2023-08-21T05:36:05;100974.34;;;19.57;100.00
4085;BME280;2057;50.858;6.572;2023-08-21T05:38:31;100982.28;;;19.70;100.00
4085;BME280;2057;50.858;6.572;2023-08-21T05:40:58;100982.25;;;19.67;100.00
4085;BME280;2057;50.858;6.572;2023-08-21T05:43:24;100976.22;;;19.66;100.00
4085;BME280;2057;50.858;6.572;2023-08-21T05:45:49;100982.16;;;19.64;100.00
4085;BME280;2057;50.858;6.572;2023-08-21T05:48:17;100983.72;;;19.55;100.00
4085;BME280;2057;50.858;6.572;2023-08-21T05:50:42;100986.13;;;19.48;100.00
4085;BME280;2057;50.858;6.572;2023-08-21T05:53:08;100983.16;;;19.27;100.00
4085;BME280;2057;50.858;6.572;2023-08-21T05:55:37;100985.00;;;19.35;100.00
4085;BME280;2057;50.858;6.572;2023-08-21T05:58:05;100980.84;;;19.40;100.00
4085;BME280;2057;50.858;6.572;2023-08-21T06:00:33;100991.72;;;19.26;100.00
4085;BME280;2057;50.858;6.572;2023-08-21T06:02:58;100994.25;;;19.23;100.00
4085;BME280;2057;50.858;6.572;2023-08-21T06:05:24;100998.56;;;19.26;100.00
4085;BME280;2057;50.858;6.572;2023-08-21T06:07:49;101008.97;;;19.29;100.00
4085;BME280;2057;50.858;6.572;2023-08-21T06:10:16;100990.72;;;19.20;100.00
4085;BME280;2057;50.858;6.572;2023-08-21T06:12:42;100995.28;;;19.32;100.00
4085;BME280;2057;50.858;6.572;2023-08-21T06:15:08;101003.81;;;19.31;100.00
4085;BME280;2057;50.858;6.572;2023-08-21T06:17:38;101002.28;;;19.39;100.00
4085;BME280;2057;50.858;6.572;2023-08-21T06:20:05;101006.78;;;19.49;100.00
4085;BME280;2057;50.858;6.572;2023-08-21T06:22:33;101003.63;;;19.63;100.00
4085;BME280;2057;50.858;6.572;2023-08-21T06:24:58;101006.75;;;19.48;100.00
4085;BME280;2057;50.858;6.572;2023-08-21T06:27:26;101009.59;;;19.60;100.00
4085;BME280;2057;50.858;6.572;2023-08-21T06:29:51;101011.38;;;19.64;100.00
4085;BME280;2057;50.858;6.572;2023-08-21T06:32:17;101013.94;;;19.64;100.00
4085;BME280;2057;50.858;6.572;2023-08-21T06:34:44;100999.78;;;19.85;100.00
4085;BME280;2057;50.858;6.572;2023-08-21T06:37:09;101015.34;;;19.91;100.00
4085;BME280;2057;50.858;6.572;2023-08-21T06:39:35;101009.25;;;19.86;100.00
4085;BME280;2057;50.858;6.572;2023-08-21T06:42:01;101013.63;;;19.90;100.00
4085;BME280;2057;50.858;6.572;2023-08-21T06:44:33;101011.34;;;20.05;100.00
4085;BME280;2057;50.858;6.572;2023-08-21T06:46:59;101015.50;;;19.99;100.00
4085;BME280;2057;50.858;6.572;2023-08-21T06:49:26;101019.13;;;20.09;100.00
4085;BME280;2057;50.858;6.572;2023-08-21T06:51:52;101020.13;;;20.15;100.00
4085;BME280;2057;50.858;6.572;2023-08-21T06:54:17;101011.78;;;20.30;100.00
4085;BME280;2057;50.858;6.572;2023-08-21T06:56:46;101011.94;;;20.40;100.00
4085;BME280;2057;50.858;6.572;2023-08-21T06:59:11;101015.28;;;20.35;100.00
4085;BME280;2057;50.858;6.572;2023-08-21T07:01:39;101017.84;;;20.32;100.00
4085;BME280;2057;50.858;6.572;2023-08-21T07:04:04;101006.13;;;20.53;100.00
4085;BME280;2057;50.858;6.572;2023-08-21T07:06:30;101014.78;;;20.57;100.00
4085;BME280;2057;50.858;6.572;2023-08-21T07:08:56;101009.94;;;20.74;100.00
4085;BME280;2057;50.858;6.572;2023-08-21T07:11:23;101006.44;;;20.72;100.00
4085;BME280;2057;50.858;6.572;2023-08-21T07:13:49;101004.09;;;20.84;100.00
4085;BME280;2057;50.858;6.572;2023-08-21T07:16:14;101010.84;;;20.77;100.00
4085;BME280;2057;50.858;6.572;2023-08-21T07:18:40;101014.34;;;20.79;100.00
4085;BME280;2057;50.858;6.572;2023-08-21T07:21:05;101010.00;;;20.78;100.00
4085;BME280;2057;50.858;6.572;2023-08-21T07:23:33;101012.97;;;21.05;100.00
4085;BME280;2057;50.858;6.572;2023-08-21T07:26:01;101013.66;;;20.91;100.00
4085;BME280;2057;50.858;6.572;2023-08-21T07:28:27;101021.19;;;20.77;100.00
4085;BME280;2057;50.858;6.572;2023-08-21T07:30:58;101015.25;;;20.84;100.00
4085;BME280;2057;50.858;6.572;2023-08-21T07:33:25;101017.22;;;20.99;100.00
4085;BME280;2057;50.858;6.572;2023-08-21T07:35:58;101032.91;;;21.13;100.00
4085;BME280;2057;50.858;6.572;2023-08-21T07:38:26;101021.78;;;21.19;100.00
4085;BME280;2057;50.858;6.572;2023-08-21T07:41:02;101026.13;;;21.22;100.00
4085;BME280;2057;50.858;6.572;2023-08-21T07:43:27;101020.97;;;21.22;100.00
4085;BME280;2057;50.858;6.572;2023-08-21T07:45:53;101030.66;;;21.38;100.00
4085;BME280;2057;50.858;6.572;2023-08-21T07:48:18;101028.13;;;21.44;100.00
4085;BME280;2057;50.858;6.572;2023-08-21T07:50:51;101032.41;;;21.41;100.00
4085;BME280;2057;50.858;6.572;2023-08-21T07:53:16;101040.25;;;21.49;100.00
4085;BME280;2057;50.858;6.572;2023-08-21T07:55:41;101034.31;;;21.54;100.00
4085;BME280;2057;50.858;6.572;2023-08-21T07:58:07;101029.03;;;21.48;100.00
4085;BME280;2057;50.858;6.572;2023-08-21T08:00:35;101035.03;;;21.45;100.00
4085;BME280;2057;50.858;6.572;2023-08-21T08:03:00;101023.09;;;21.52;100.00
4085;BME280;2057;50.858;6.572;2023-08-21T08:05:26;101023.88;;;21.48;100.00
4085;BME280;2057;50.858;6.572;2023-08-21T08:07:53;101031.88;;;21.65;100.00
4085;BME280;2057;50.858;6.572;2023-08-21T08:10:18;101024.06;;;21.60;100.00
4085;BME280;2057;50.858;6.572;2023-08-21T08:12:46;101034.59;;;21.74;100.00
4085;BME280;2057;50.858;6.572;2023-08-21T08:15:14;101033.78;;;21.80;100.00
4085;BME280;2057;50.858;6.572;2023-08-21T08:17:39;101027.00;;;21.91;100.00
4085;BME280;2057;50.858;6.572;2023-08-21T08:20:05;101031.38;;;21.96;100.00
4085;BME280;2057;50.858;6.572;2023-08-21T08:22:31;101033.16;;;22.03;99.31
4085;BME280;2057;50.858;6.572;2023-08-21T08:24:56;101036.69;;;22.11;100.00
4085;BME280;2057;50.858;6.572;2023-08-21T08:27:22;101019.47;;;22.13;100.00
4085;BME280;2057;50.858;6.572;2023-08-21T08:29:50;101017.78;;;22.17;98.84
4085;BME280;2057;50.858;6.572;2023-08-21T08:32:15;101023.09;;;22.31;100.00
4085;BME280;2057;50.858;6.572;2023-08-21T08:34:40;101018.78;;;22.33;99.81
4085;BME280;2057;50.858;6.572;2023-08-21T08:37:06;101030.13;;;22.41;100.00
4085;BME280;2057;50.858;6.572;2023-08-21T08:39:31;101024.94;;;22.46;96.99
4085;BME280;2057;50.858;6.572;2023-08-21T08:42:00;101029.34;;;22.54;97.24
4085;BME280;2057;50.858;6.572;2023-08-21T08:44:31;101024.22;;;22.59;94.94
4085;BME280;2057;50.858;6.572;2023-08-21T08:47:02;101024.13;;;22.48;95.99
4085;BME280;2057;50.858;6.572;2023-08-21T08:49:28;101025.16;;;22.66;95.67
4085;BME280;2057;50.858;6.572;2023-08-21T08:51:57;101032.06;;;22.67;94.48
4085;BME280;2057;50.858;6.572;2023-08-21T08:54:23;101034.53;;;22.56;94.67
4085;BME280;2057;50.858;6.572;2023-08-21T08:56:50;101032.97;;;22.75;96.07
4085;BME280;2057;50.858;6.572;2023-08-21T08:59:16;101033.88;;;22.82;96.43
4085;BME280;2057;50.858;6.572;2023-08-21T09:01:41;101036.38;;;22.72;94.47
4085;BME280;2057;50.858;6.572;2023-08-21T09:04:07;101038.22;;;22.89;93.21
4085;BME280;2057;50.858;6.572;2023-08-21T09:06:35;101033.69;;;22.59;94.64
4085;BME280;2057;50.858;6.572;2023-08-21T09:09:03;101042.56;;;22.88;96.84
4085;BME280;2057;50.858;6.572;2023-08-21T09:11:31;101039.16;;;22.96;95.41
4085;BME280;2057;50.858;6.572;2023-08-21T09:13:58;101034.00;;;23.02;94.09
4085;BME280;2057;50.858;6.572;2023-08-21T09:16:24;101037.50;;;23.07;93.47
4085;BME280;2057;50.858;6.572;2023-08-21T09:18:55;101036.56;;;22.94;93.37
4085;BME280;2057;50.858;6.572;2023-08-21T09:21:22;101038.41;;;23.15;94.93
4085;BME280;2057;50.858;6.572;2023-08-21T09:24:05;101037.59;;;23.18;91.51
4085;BME280;2057;50.858;6.572;2023-08-21T09:26:34;101040.22;;;23.21;93.22
4085;BME280;2057;50.858;6.572;2023-08-21T09:29:00;101053.19;;;23.26;91.53
4085;BME280;2057;50.858;6.572;2023-08-21T09:31:30;101039.38;;;23.30;93.12
4085;BME280;2057;50.858;6.572;2023-08-21T09:33:59;101042.97;;;23.54;92.32
4085;BME280;2057;50.858;6.572;2023-08-21T09:36:26;101042.16;;;23.70;90.13
4085;BME280;2057;50.858;6.572;2023-08-21T09:38:51;101044.69;;;23.59;90.57
4085;BME280;2057;50.858;6.572;2023-08-21T09:41:21;101041.28;;;23.70;90.62
4085;BME280;2057;50.858;6.572;2023-08-21T09:43:46;101043.88;;;23.70;89.25
4085;BME280;2057;50.858;6.572;2023-08-21T09:46:16;101043.00;;;23.72;89.84
4085;BME280;2057;50.858;6.572;2023-08-21T09:48:44;101042.09;;;23.52;88.96
4085;BME280;2057;50.858;6.572;2023-08-21T09:51:11;101049.91;;;23.61;88.26
4085;BME280;2057;50.858;6.572;2023-08-21T09:53:37;101040.31;;;23.46;89.25
4085;BME280;2057;50.858;6.572;2023-08-21T09:56:02;101039.50;;;23.59;89.17
4085;BME280;2057;50.858;6.572;2023-08-21T09:58:29;101038.66;;;23.59;90.22
4085;BME280;2057;50.858;6.572;2023-08-21T10:00:57;101031.84;;;23.86;90.52
4085;BME280;2057;50.858;6.572;2023-08-21T10:03:23;101029.31;;;24.12;89.84
4085;BME280;2057;50.858;6.572;2023-08-21T10:05:49;101023.28;;;24.05;87.53
4085;BME280;2057;50.858;6.572;2023-08-21T10:08:16;101021.56;;;24.18;87.08
4085;BME280;2057;50.858;6.572;2023-08-21T10:10:43;101021.50;;;23.95;86.89
4085;BME280;2057;50.858;6.572;2023-08-21T10:13:09;101028.41;;;23.94;87.73
4085;BME280;2057;50.858;6.572;2023-08-21T10:15:36;101017.22;;;24.08;87.41
4085;BME280;2057;50.858;6.572;2023-08-21T10:20:44;101020.69;;;24.21;87.96
4085;BME280;2057;50.858;6.572;2023-08-21T10:23:24;101016.34;;;24.51;87.50
4085;BME280;2057;50.858;6.572;2023-08-21T10:26:03;101023.28;;;24.59;85.84
4085;BME280;2057;50.858;6.572;2023-08-21T10:28:49;101020.72;;;24.58;83.52
4085;BME280;2057;50.858;6.572;2023-08-21T10:31:35;101017.25;;;24.40;83.54
4085;BME280;2057;50.858;6.572;2023-08-21T10:34:05;101012.06;;;24.68;86.89
4085;BME280;2057;50.858;6.572;2023-08-21T10:39:21;101018.03;;;25.09;85.05
4085;BME280;2057;50.858;6.572;2023-08-21T10:41:58;101018.94;;;25.10;83.10
4085;BME280;2057;50.858;6.572;2023-08-21T10:47:32;101022.31;;;25.30;84.13
4085;BME280;2057;50.858;6.572;2023-08-21T10:50:00;101020.56;;;25.35;83.16
4085;BME280;2057;50.858;6.572;2023-08-21T10:55:02;101017.09;;;25.33;82.79
4085;BME280;2057;50.858;6.572;2023-08-21T10:57:30;101011.91;;;25.30;82.11
4085;BME280;2057;50.858;6.572;2023-08-21T11:00:20;101011.19;;;24.75;83.16
4085;BME280;2057;50.858;6.572;2023-08-21T11:02:52;101010.25;;;25.12;82.00
4085;BME280;2057;50.858;6.572;2023-08-21T11:05:28;101018.00;;;25.31;83.29
4085;BME280;2057;50.858;6.572;2023-08-21T11:07:53;101008.50;;;25.20;81.74
4085;BME280;2057;50.858;6.572;2023-08-21T11:10:23;101012.81;;;25.23;81.24
4085;BME280;2057;50.858;6.572;2023-08-21T11:12:53;101013.63;;;25.33;80.03
4085;BME280;2057;50.858;6.572;2023-08-21T11:15:20;101008.41;;;25.47;83.27
4085;BME280;2057;50.858;6.572;2023-08-21T11:17:59;101005.59;;;25.89;80.98
4085;BME280;2057;50.858;6.572;2023-08-21T11:20:33;101023.06;;;25.65;78.30
4085;BME280;2057;50.858;6.572;2023-08-21T11:23:02;101021.44;;;25.44;80.23
4085;BME280;2057;50.858;6.572;2023-08-21T11:25:29;101029.25;;;25.41;80.51
4085;BME280;2057;50.858;6.572;2023-08-21T11:27:55;101030.09;;;25.40;79.96
4085;BME280;2057;50.858;6.572;2023-08-21T11:30:22;101031.88;;;25.19;82.43
4085;BME280;2057;50.858;6.572;2023-08-21T11:33:21;101023.19;;;25.28;80.35
4085;BME280;2057;50.858;6.572;2023-08-21T11:35:40;101025.75;;;25.34;79.98
4085;BME280;2057;50.858;6.572;2023-08-21T11:38:14;101024.91;;;25.32;81.26
4085;BME280;2057;50.858;6.572;2023-08-21T11:40:51;101024.97;;;25.12;81.10
4085;BME280;2057;50.858;6.572;2023-08-21T11:43:16;101024.94;;;25.19;80.73
4085;BME280;2057;50.858;6.572;2023-08-21T11:45:45;101018.84;;;25.41;79.60
4085;BME280;2057;50.858;6.572;2023-08-21T11:48:11;101024.03;;;25.45;81.26
4085;BME280;2057;50.858;6.572;2023-08-21T11:50:36;101015.28;;;25.57;80.08
4085;BME280;2057;50.858;6.572;2023-08-21T11:53:02;101018.75;;;25.59;79.25
4085;BME280;2057;50.858;6.572;2023-08-21T11:55:29;101017.88;;;25.63;79.91
4085;BME280;2057;50.858;6.572;2023-08-21T11:57:54;101024.72;;;25.75;78.64
4085;BME280;2057;50.858;6.572;2023-08-21T12:00:27;101026.41;;;25.89;77.76
4085;BME280;2057;50.858;6.572;2023-08-21T12:02:55;101011.56;;;26.05;76.89
4085;BME280;2057;50.858;6.572;2023-08-21T12:05:21;101013.38;;;25.93;77.34
4085;BME280;2057;50.858;6.572;2023-08-21T12:07:49;101006.34;;;26.03;76.99
4085;BME280;2057;50.858;6.572;2023-08-21T12:10:22;101010.59;;;26.23;75.30
4085;BME280;2057;50.858;6.572;2023-08-21T12:12:47;101001.88;;;26.25;75.42
4085;BME280;2057;50.858;6.572;2023-08-21T12:15:15;101008.75;;;26.36;73.65
4085;BME280;2057;50.858;6.572;2023-08-21T12:17:43;101008.00;;;26.20;72.41
4085;BME280;2057;50.858;6.572;2023-08-21T12:20:09;101001.00;;;26.26;72.43
4085;BME280;2057;50.858;6.572;2023-08-21T12:22:38;101007.66;;;26.61;71.99
4085;BME280;2057;50.858;6.572;2023-08-21T12:25:04;101002.28;;;26.83;72.36
4085;BME280;2057;50.858;6.572;2023-08-21T12:27:32;101000.16;;;27.15;71.17
4085;BME280;2057;50.858;6.572;2023-08-21T12:29:57;101001.31;;;26.92;68.48
4085;BME280;2057;50.858;6.572;2023-08-21T12:32:22;101003.06;;;26.90;66.21
4085;BME280;2057;50.858;6.572;2023-08-21T12:34:48;100997.78;;;26.98;69.04
4085;BME280;2057;50.858;6.572;2023-08-21T12:37:13;100997.69;;;27.07;66.95
4085;BME280;2057;50.858;6.572;2023-08-21T12:39:39;100988.00;;;27.15;64.12
4085;BME280;2057;50.858;6.572;2023-08-21T12:42:04;100992.66;;;26.88;65.02
4085;BME280;2057;50.858;6.572;2023-08-21T12:44:29;100992.59;;;26.96;64.05
4085;BME280;2057;50.858;6.572;2023-08-21T12:46:57;100988.34;;;26.84;65.53
4085;BME280;2057;50.858;6.572;2023-08-21T12:49:22;100990.88;;;26.92;65.80
4085;BME280;2057;50.858;6.572;2023-08-21T12:51:48;100989.19;;;26.89;64.81
4085;BME280;2057;50.858;6.572;2023-08-21T12:54:13;100988.41;;;26.75;65.40
4085;BME280;2057;50.858;6.572;2023-08-21T12:56:38;100988.41;;;26.81;64.44
4085;BME280;2057;50.858;6.572;2023-08-21T12:59:07;100988.19;;;27.00;65.05
4085;BME280;2057;50.858;6.572;2023-08-21T13:01:32;100985.31;;;27.24;64.68
4085;BME280;2057;50.858;6.572;2023-08-21T13:04:01;100981.47;;;27.53;62.75
4085;BME280;2057;50.858;6.572;2023-08-21T13:06:28;100981.16;;;27.75;64.27
4085;BME280;2057;50.858;6.572;2023-08-21T13:08:56;100985.88;;;28.12;64.22
4085;BME280;2057;50.858;6.572;2023-08-21T13:11:21;100976.88;;;28.27;62.50
4085;BME280;2057;50.858;6.572;2023-08-21T13:13:49;100975.16;;;27.70;60.70
4085;BME280;2057;50.858;6.572;2023-08-21T13:16:14;100977.94;;;27.58;62.83
4085;BME280;2057;50.858;6.572;2023-08-21T13:18:40;100979.91;;;27.37;62.30